Time;durP1;ratioP1;P1;durP2;ratioP2;P2;SDS_P1;SDS_P2;PMS_P1;PMS_P2;Temp;Humidity;BMP_temperature;BMP_pressure;BME280_temperature;BME280_humidity;BME280_pressure;Samples;Min_cycle;Max_cycle;Signal;HPM_P1;HPM_P2
2023/03/17 00:00:48;;;;;;;3.70;3.00;;;11.20;65.30;;;;;;5094662;28;20070;-79
2023/03/17 00:03:28;;;;;;;4.35;3.10;;;11.20;65.40;;;;;;5095200;28;20085;-79
2023/03/17 00:05:55;;;;;;;3.42;2.90;;;11.20;65.30;;;;;;5076507;28;20233;-79
2023/03/17 00:08:32;;;;;;;3.30;3.00;;;11.20;65.30;;;;;;5094063;28;20062;-79
2023/03/17 00:10:58;;;;;;;3.35;2.90;;;11.20;65.30;;;;;;5076260;28;20039;-78
2023/03/17 00:13:24;;;;;;;3.75;2.97;;;11.20;65.30;;;;;;5094284;28;20570;-80
2023/03/17 00:15:58;;;;;;;3.90;3.20;;;11.20;65.30;;;;;;5094314;28;20370;-79
2023/03/17 00:18:23;;;;;;;3.70;2.70;;;11.20;65.40;;;;;;5094753;28;20107;-80
2023/03/17 00:20:50;;;;;;;4.13;3.05;;;11.20;65.40;;;;;;5094476;28;20107;-79
2023/03/17 00:23:22;;;;;;;3.75;2.92;;;11.20;65.30;;;;;;5094446;28;20050;-79
2023/03/17 00:25:48;;;;;;;4.18;3.10;;;11.20;65.40;;;;;;5094610;28;20025;-79
2023/03/17 00:28:25;;;;;;;3.53;2.95;;;11.20;65.30;;;;;;5094862;28;20024;-79
2023/03/17 00:30:57;;;;;;;3.85;2.83;;;11.10;65.30;;;;;;5094583;28;20063;-79
2023/03/17 00:33:25;;;;;;;2.92;2.63;;;11.20;65.40;;;;;;5094278;28;20099;-79
2023/03/17 00:35:52;;;;;;;3.45;2.90;;;11.20;65.40;;;;;;5076821;28;20028;-79
2023/03/17 00:38:20;;;;;;;4.35;3.00;;;11.10;65.30;;;;;;5094315;28;20024;-78
2023/03/17 00:40:46;;;;;;;3.38;2.72;;;11.10;65.30;;;;;;5093959;28;20487;-78
2023/03/17 00:43:12;;;;;;;3.35;2.95;;;11.10;65.30;;;;;;5094078;28;20466;-78
2023/03/17 00:45:39;;;;;;;3.05;2.67;;;11.20;65.30;;;;;;5094144;28;20020;-79
2023/03/17 00:48:19;;;;;;;3.78;2.83;;;11.10;65.30;;;;;;5093884;28;20023;-80
2023/03/17 00:50:46;;;;;;;3.05;2.78;;;11.20;65.30;;;;;;5093775;28;20032;-78
2023/03/17 00:53:14;;;;;;;3.50;2.80;;;11.20;65.30;;;;;;5094015;28;20035;-79
2023/03/17 00:55:41;;;;;;;3.33;2.58;;;11.10;65.20;;;;;;5093990;28;20035;-79
2023/03/17 00:58:39;;;;;;;3.08;2.70;;;11.10;65.20;;;;;;5094019;28;20028;-79
2023/03/17 01:01:05;;;;;;;3.03;2.60;;;11.10;65.20;;;;;;5049279;28;20035;-78
2023/03/17 01:03:31;;;;;;;3.17;2.88;;;11.10;65.20;;;;;;5094188;28;20085;-80
2023/03/17 01:05:58;;;;;;;2.80;2.55;;;11.10;65.20;;;;;;5093960;28;20419;-79
2023/03/17 01:08:24;;;;;;;3.38;2.83;;;11.10;65.20;;;;;;5093894;28;20098;-79
2023/03/17 01:10:50;;;;;;;3.83;2.80;;;11.10;65.20;;;;;;5077538;28;20346;-79
2023/03/17 01:13:16;;;;;;;3.78;2.80;;;11.10;65.30;;;;;;5098090;28;20027;-79
2023/03/17 01:15:45;;;;;;;3.70;2.90;;;11.10;65.20;;;;;;5098193;28;20060;-79
2023/03/17 01:18:14;;;;;;;2.70;2.50;;;11.10;65.30;;;;;;5097903;28;20103;-79
2023/03/17 01:20:41;;;;;;;3.00;2.60;;;11.10;65.20;;;;;;5098096;28;20024;-79
2023/03/17 01:23:08;;;;;;;2.85;2.50;;;11.10;65.20;;;;;;5097942;28;20059;-79
2023/03/17 01:25:34;;;;;;;3.70;2.80;;;11.10;65.20;;;;;;5097875;28;20059;-79
2023/03/17 01:28:00;;;;;;;3.13;2.83;;;11.10;65.20;;;;;;5097973;28;20043;-79
2023/03/17 01:30:29;;;;;;;2.83;2.53;;;11.10;65.30;;;;;;5097418;28;20024;-79
2023/03/17 01:32:57;;;;;;;3.00;2.70;;;11.00;65.20;;;;;;5097504;28;20476;-79
2023/03/17 01:35:24;;;;;;;3.10;2.70;;;11.10;65.30;;;;;;5097839;28;20536;-79
2023/03/17 01:37:50;;;;;;;2.70;2.50;;;11.00;65.20;;;;;;5098128;28;20055;-79
2023/03/17 01:40:19;;;;;;;3.15;2.53;;;11.00;65.20;;;;;;5098652;28;20036;-80
2023/03/17 01:42:53;;;;;;;2.85;2.55;;;11.10;65.20;;;;;;5097390;28;20032;-78
2023/03/17 01:45:56;;;;;;;3.53;2.63;;;11.00;65.20;;;;;;5097924;28;20480;-79
2023/03/17 01:48:23;;;;;;;3.03;2.70;;;11.00;65.20;;;;;;5097397;28;20417;-79
2023/03/17 01:50:50;;;;;;;2.70;2.50;;;11.00;65.20;;;;;;5097193;28;20051;-79
2023/03/17 01:53:19;;;;;;;2.60;2.40;;;11.00;65.10;;;;;;5097270;28;20107;-78
2023/03/17 01:55:45;;;;;;;3.30;2.72;;;11.00;65.20;;;;;;5097700;28;20027;-79
2023/03/17 01:58:13;;;;;;;2.88;2.60;;;11.00;65.20;;;;;;5097372;28;20032;-79
2023/03/17 02:00:38;;;;;;;3.83;2.90;;;11.00;65.20;;;;;;5078949;28;20389;-79
2023/03/17 02:03:04;;;;;;;2.70;2.40;;;10.90;65.20;;;;;;5097015;28;20044;-79
2023/03/17 02:05:31;;;;;;;2.72;2.53;;;11.00;65.20;;;;;;5078784;28;20020;-79
2023/03/17 02:07:58;;;;;;;3.00;2.67;;;10.90;65.20;;;;;;5096614;28;20081;-79
2023/03/17 02:10:27;;;;;;;2.80;2.58;;;10.90;65.20;;;;;;5096697;28;20028;-79
2023/03/17 02:12:56;;;;;;;2.85;2.50;;;10.90;65.20;;;;;;5097082;28;20020;-78
2023/03/17 02:15:23;;;;;;;2.65;2.40;;;10.90;65.20;;;;;;5078835;28;20350;-78
2023/03/17 02:17:49;;;;;;;2.45;2.25;;;10.90;65.20;;;;;;5096908;28;20027;-80
2023/03/17 02:20:17;;;;;;;2.80;2.60;;;10.90;65.20;;;;;;5096519;28;20040;-79
2023/03/17 02:22:45;;;;;;;2.80;2.50;;;10.90;65.80;;;;;;5095534;28;20386;-80
2023/03/17 02:25:13;;;;;;;2.70;2.50;;;10.90;65.20;;;;;;5078430;28;20020;-80
2023/03/17 02:27:44;;;;;;;2.60;2.40;;;10.90;65.20;;;;;;5096822;28;20024;-80
2023/03/17 02:30:12;;;;;;;2.72;2.50;;;10.90;65.20;;;;;;5096735;28;20031;-80
2023/03/17 02:32:38;;;;;;;2.63;2.42;;;10.90;65.30;;;;;;5096556;28;20028;-79
2023/03/17 02:35:06;;;;;;;2.67;2.47;;;10.90;65.20;;;;;;5096046;28;20056;-80
2023/03/17 02:37:32;;;;;;;2.63;2.40;;;10.90;65.20;;;;;;5078523;28;20040;-80
2023/03/17 02:39:59;;;;;;;2.75;2.40;;;10.90;65.20;;;;;;5096249;28;20453;-80
2023/03/17 02:42:25;;;;;;;2.58;2.38;;;10.80;65.10;;;;;;5096167;28;20461;-80
2023/03/17 02:44:51;;;;;;;3.50;2.50;;;10.80;65.10;;;;;;5096336;28;20123;-80
2023/03/17 02:47:18;;;;;;;3.45;2.78;;;10.80;65.10;;;;;;5096262;28;20044;-80
2023/03/17 02:49:44;;;;;;;2.60;2.40;;;10.90;65.20;;;;;;5079014;28;20077;-80
2023/03/17 02:52:10;;;;;;;3.05;2.60;;;10.80;65.10;;;;;;5078433;28;20098;-79
2023/03/17 02:54:36;;;;;;;2.75;2.50;;;10.80;65.10;;;;;;5095928;28;20028;-80
2023/03/17 02:57:02;;;;;;;2.50;2.30;;;10.80;65.10;;;;;;5095950;28;20073;-79
2023/03/17 02:59:28;;;;;;;2.90;2.60;;;10.80;65.20;;;;;;5096105;28;20017;-80
2023/03/17 03:01:55;;;;;;;2.65;2.45;;;10.80;65.20;;;;;;5095647;28;20358;-79
2023/03/17 03:04:21;;;;;;;2.63;2.42;;;10.80;65.20;;;;;;5096154;28;20028;-80
2023/03/17 03:06:47;;;;;;;2.60;2.40;;;10.80;65.10;;;;;;5096114;28;20082;-79
2023/03/17 03:09:13;;;;;;;2.97;2.35;;;10.80;65.10;;;;;;5095615;28;20098;-79
2023/03/17 03:11:39;;;;;;;3.03;2.42;;;10.80;65.10;;;;;;5095606;28;20469;-79
2023/03/17 03:14:07;;;;;;;3.28;2.85;;;10.80;65.10;;;;;;5095521;28;20024;-80
2023/03/17 03:16:33;;;;;;;2.97;2.67;;;10.80;65.10;;;;;;5096050;28;20111;-79
2023/03/17 03:18:59;;;;;;;2.80;2.50;;;10.80;65.10;;;;;;5095977;28;20028;-80
2023/03/17 03:21:25;;;;;;;2.65;2.45;;;10.80;65.20;;;;;;5095769;28;20393;-79
2023/03/17 03:23:51;;;;;;;2.58;2.38;;;10.80;65.20;;;;;;5095441;28;20024;-79
2023/03/17 03:26:16;;;;;;;2.80;2.42;;;10.80;65.20;;;;;;5095581;28;20020;-80
2023/03/17 03:28:42;;;;;;;2.90;2.63;;;10.80;65.20;;;;;;5095649;28;20058;-80
2023/03/17 03:31:08;;;;;;;3.13;2.70;;;10.80;65.10;;;;;;5094967;28;20028;-79
2023/03/17 03:33:34;;;;;;;2.50;2.28;;;10.80;65.10;;;;;;5095021;28;20032;-79
2023/03/17 03:36:00;;;;;;;2.42;2.22;;;10.80;65.10;;;;;;5095618;28;20437;-79
2023/03/17 03:38:26;;;;;;;2.60;2.40;;;10.70;65.10;;;;;;5095260;28;20060;-79
2023/03/17 03:40:52;;;;;;;2.05;1.95;;;10.70;65.10;;;;;;5094964;28;20032;-80
2023/03/17 03:43:18;;;;;;;2.55;2.35;;;10.70;65.10;;;;;;5095016;28;20465;-80
2023/03/17 03:45:44;;;;;;;2.90;2.60;;;10.80;65.10;;;;;;5094840;28;20089;-79
2023/03/17 03:48:10;;;;;;;3.60;2.53;;;10.70;65.10;;;;;;5095048;28;20036;-79
2023/03/17 03:50:36;;;;;;;2.95;2.65;;;10.80;65.10;;;;;;5095278;28;20377;-79
2023/03/17 03:53:02;;;;;;;2.90;2.55;;;10.70;65.00;;;;;;5076858;28;20028;-79
2023/03/17 03:55:28;;;;;;;2.40;2.20;;;10.70;65.00;;;;;;5095155;28;20103;-80
2023/03/17 03:57:54;;;;;;;2.63;2.42;;;10.80;65.10;;;;;;5094872;28;20055;-80
2023/03/17 04:00:20;;;;;;;2.40;2.20;;;10.70;65.10;;;;;;5094553;28;20049;-79
2023/03/17 04:02:45;;;;;;;2.40;2.20;;;10.70;65.10;;;;;;5095697;28;20032;-80
2023/03/17 04:05:17;;;;;;;2.50;2.30;;;10.70;65.00;;;;;;5076619;28;20468;-80
2023/03/17 04:07:43;;;;;;;2.70;2.50;;;10.70;65.10;;;;;;5094780;28;20024;-80
2023/03/17 04:10:14;;;;;;;2.60;2.40;;;10.70;65.00;;;;;;5094618;28;20115;-80
2023/03/17 04:12:40;;;;;;;2.17;2.08;;;10.70;65.00;;;;;;5094589;28;20050;-80
2023/03/17 04:15:08;;;;;;;2.28;2.10;;;10.70;65.00;;;;;;5094767;28;20024;-79
2023/03/17 04:17:34;;;;;;;2.75;2.42;;;10.70;65.10;;;;;;5094791;28;20020;-80
2023/03/17 04:20:00;;;;;;;2.60;2.25;;;10.70;65.00;;;;;;5076196;28;20025;-80
2023/03/17 04:22:26;;;;;;;2.40;2.20;;;10.70;65.00;;;;;;5094545;28;20028;-79
2023/03/17 04:24:51;;;;;;;2.50;2.30;;;10.70;65.00;;;;;;5094182;28;20024;-80
2023/03/17 04:27:18;;;;;;;2.40;2.20;;;10.70;65.00;;;;;;5094294;28;20024;-79
2023/03/17 04:29:43;;;;;;;2.38;2.17;;;10.70;65.00;;;;;;5094342;28;20055;-79
2023/03/17 04:32:13;;;;;;;2.30;2.10;;;10.70;65.00;;;;;;5094059;28;20465;-79
2023/03/17 04:34:40;;;;;;;2.65;2.13;;;10.70;65.00;;;;;;5094389;28;20048;-79
2023/03/17 04:37:06;;;;;;;2.38;2.17;;;10.70;65.00;;;;;;5076127;28;20031;-79
2023/03/17 04:39:32;;;;;;;2.50;2.30;;;10.70;65.00;;;;;;5094228;28;20020;-79
2023/03/17 04:41:58;;;;;;;2.70;2.50;;;10.70;65.00;;;;;;5094210;28;20028;-79
2023/03/17 04:44:23;;;;;;;2.40;2.20;;;10.60;65.00;;;;;;5094206;28;20028;-80
2023/03/17 04:46:49;;;;;;;2.55;2.35;;;10.70;65.00;;;;;;5094037;28;20056;-80
2023/03/17 04:49:15;;;;;;;2.33;2.20;;;10.60;64.90;;;;;;5093806;28;20059;-79
2023/03/17 04:51:41;;;;;;;2.33;2.10;;;10.60;65.00;;;;;;5075780;28;20035;-80
2023/03/17 04:54:07;;;;;;;2.53;2.28;;;10.60;65.00;;;;;;5075921;28;20031;-80
2023/03/17 04:56:33;;;;;;;2.70;2.50;;;10.60;65.00;;;;;;5093933;28;20385;-80
2023/03/17 04:58:59;;;;;;;2.40;2.20;;;10.60;64.90;;;;;;5075870;28;20028;-81
2023/03/17 05:01:25;;;;;;;2.40;2.20;;;10.60;65.00;;;;;;5094008;28;20039;-81
2023/03/17 05:03:50;;;;;;;2.25;2.05;;;10.60;65.00;;;;;;5075944;28;20516;-81
2023/03/17 05:06:16;;;;;;;2.40;2.20;;;10.60;65.00;;;;;;5075978;28;20448;-81
2023/03/17 05:08:43;;;;;;;2.15;2.03;;;10.60;64.90;;;;;;5093810;28;20520;-79
2023/03/17 05:11:10;;;;;;;2.50;2.30;;;10.60;64.90;;;;;;5093773;28;20028;-79
2023/03/17 05:13:36;;;;;;;2.08;1.98;;;10.60;65.00;;;;;;5076584;28;20551;-80
2023/03/17 05:16:02;;;;;;;2.30;2.10;;;10.60;64.90;;;;;;5093776;28;20056;-78
2023/03/17 05:18:28;;;;;;;2.38;2.17;;;10.70;64.90;;;;;;5093774;28;20107;-80
2023/03/17 05:20:54;;;;;;;2.53;2.33;;;10.60;64.90;;;;;;5093784;28;20115;-81
2023/03/17 05:23:21;;;;;;;2.35;2.15;;;10.60;64.90;;;;;;5093887;28;20067;-80
2023/03/17 05:25:47;;;;;;;2.38;2.05;;;10.60;64.80;;;;;;5093672;28;20051;-80
2023/03/17 05:28:13;;;;;;;2.30;2.10;;;10.70;64.90;;;;;;5093890;28;20024;-79
2023/03/17 05:30:39;;;;;;;2.33;2.13;;;10.60;64.80;;;;;;5093767;28;20454;-80
2023/03/17 05:33:05;;;;;;;2.35;2.15;;;10.60;64.90;;;;;;5075537;28;20043;-80
2023/03/17 05:35:31;;;;;;;2.33;2.13;;;10.60;64.80;;;;;;5093447;28;20056;-81
2023/03/17 05:37:56;;;;;;;2.40;2.20;;;10.60;64.80;;;;;;5093162;28;20024;-80
2023/03/17 05:40:25;;;;;;;2.30;2.10;;;10.60;64.80;;;;;;5093509;28;20036;-80
2023/03/17 05:42:51;;;;;;;1.92;1.83;;;10.70;64.80;;;;;;5075129;28;20079;-81
2023/03/17 05:45:17;;;;;;;2.10;2.00;;;10.70;64.80;;;;;;5093577;28;20056;-80
2023/03/17 05:47:43;;;;;;;2.30;2.10;;;10.70;64.80;;;;;;5093921;28;20032;-80
2023/03/17 05:50:10;;;;;;;2.13;1.95;;;10.70;64.80;;;;;;5075711;28;20027;-81
2023/03/17 05:52:36;;;;;;;2.17;1.98;;;10.70;64.80;;;;;;5093423;28;20119;-79
2023/03/17 05:55:04;;;;;;;2.28;2.03;;;10.70;64.80;;;;;;5092851;28;20020;-79
2023/03/17 05:57:30;;;;;;;2.25;2.08;;;10.70;64.80;;;;;;5094453;28;20081;-80
2023/03/17 05:59:56;;;;;;;2.20;2.00;;;10.70;64.70;;;;;;5096817;28;20537;-80
2023/03/17 06:02:22;;;;;;;2.13;1.95;;;10.70;64.80;;;;;;5096759;28;20122;-79
2023/03/17 06:04:48;;;;;;;3.00;2.70;;;10.70;64.70;;;;;;5092358;28;20123;-84
2023/03/17 06:07:13;;;;;;;4.05;3.40;;;10.70;64.60;;;;;;5095894;28;20107;-76
2023/03/17 06:09:39;;;;;;;4.03;3.30;;;10.50;63.30;;;;;;5096071;28;20028;-77
2023/03/17 06:12:05;;;;;;;4.68;3.60;;;10.30;62.30;;;;;;5095940;28;20034;-74
2023/03/17 06:14:31;;;;;;;4.63;3.50;;;9.90;62.50;;;;;;5095933;28;20023;-70
2023/03/17 06:16:57;;;;;;;2.90;2.50;;;9.40;63.90;;;;;;5095337;28;20032;-74
2023/03/17 06:19:22;;;;;;;2.63;2.22;;;9.20;64.70;;;;;;5095797;28;20088;-74
2023/03/17 06:21:49;;;;;;;2.47;2.28;;;9.20;65.60;;;;;;5095612;28;20036;-74
2023/03/17 06:24:15;;;;;;;2.40;2.20;;;9.20;66.00;;;;;;5077825;28;20366;-74
2023/03/17 06:26:42;;;;;;;2.40;2.20;;;9.20;66.20;;;;;;5078143;28;20033;-72
2023/03/17 06:29:09;;;;;;;2.10;2.00;;;9.30;66.30;;;;;;5077266;28;20020;-73
2023/03/17 06:31:35;;;;;;;1.98;1.88;;;9.40;66.30;;;;;;5074961;28;20028;-73
2023/03/17 06:34:02;;;;;;;2.22;2.10;;;9.50;66.30;;;;;;5056916;28;20051;-73
2023/03/17 06:36:28;;;;;;;2.20;2.10;;;9.50;66.20;;;;;;5075127;28;20450;-75
2023/03/17 06:38:54;;;;;;;2.17;1.98;;;9.60;66.20;;;;;;5074934;28;20425;-74
2023/03/17 06:41:19;;;;;;;1.90;1.80;;;9.70;66.20;;;;;;5087191;28;20173;-78
2023/03/17 06:43:45;;;;;;;2.28;2.17;;;9.70;66.00;;;;;;5076997;28;20024;-75
2023/03/17 06:46:11;;;;;;;2.20;2.00;;;9.80;66.00;;;;;;5076843;28;20020;-74
2023/03/17 06:48:37;;;;;;;2.30;2.10;;;9.90;65.90;;;;;;5077005;28;20089;-73
2023/03/17 06:51:04;;;;;;;2.22;2.03;;;9.90;65.80;;;;;;5094765;28;20068;-73
2023/03/17 06:53:30;;;;;;;2.20;2.05;;;10.00;65.80;;;;;;5095677;28;20544;-73
2023/03/17 06:55:56;;;;;;;2.08;1.98;;;10.10;65.70;;;;;;5094893;28;20089;-73
2023/03/17 06:58:22;;;;;;;2.42;2.22;;;10.10;65.60;;;;;;5076938;28;20423;-72
2023/03/17 07:00:48;;;;;;;2.13;2.00;;;10.20;65.60;;;;;;5076452;28;20020;-73
2023/03/17 07:03:15;;;;;;;1.88;1.77;;;10.20;65.50;;;;;;5094682;28;20039;-73
2023/03/17 07:05:41;;;;;;;2.33;2.10;;;10.30;65.40;;;;;;5094323;28;20024;-75
2023/03/17 07:08:08;;;;;;;1.95;1.85;;;10.30;65.30;;;;;;5075993;28;20039;-72
2023/03/17 07:10:35;;;;;;;2.28;2.08;;;10.40;65.30;;;;;;5095140;28;20039;-72
2023/03/17 07:13:01;;;;;;;1.90;1.80;;;10.40;65.20;;;;;;5076288;28;20031;-72
2023/03/17 07:15:27;;;;;;;1.95;1.85;;;10.40;65.10;;;;;;5076641;28;20024;-71
2023/03/17 07:17:53;;;;;;;1.90;1.80;;;10.40;65.10;;;;;;5075847;28;20024;-71
2023/03/17 07:20:19;;;;;;;2.00;1.90;;;10.40;65.00;;;;;;5094352;28;20028;-72
2023/03/17 07:22:45;;;;;;;2.20;2.00;;;10.50;65.00;;;;;;5076481;28;20039;-71
2023/03/17 07:25:11;;;;;;;2.08;1.90;;;10.50;65.00;;;;;;5094133;28;20373;-72
2023/03/17 07:27:37;;;;;;;1.85;1.75;;;10.50;64.90;;;;;;5076105;28;20089;-72
2023/03/17 07:30:04;;;;;;;2.13;1.92;;;10.60;64.90;;;;;;5075918;28;20534;-71
2023/03/17 07:32:31;;;;;;;1.85;1.75;;;10.60;64.80;;;;;;5094323;28;20027;-72
2023/03/17 07:34:57;;;;;;;2.22;2.03;;;10.60;64.80;;;;;;5094186;28;20048;-72
2023/03/17 07:37:23;;;;;;;2.03;1.90;;;10.70;64.80;;;;;;5075490;28;20042;-71
2023/03/17 07:39:49;;;;;;;2.00;1.80;;;10.70;64.70;;;;;;5075527;28;20477;-72
2023/03/17 07:42:16;;;;;;;2.20;2.10;;;10.70;64.70;;;;;;5094254;28;20028;-72
2023/03/17 07:44:42;;;;;;;2.30;2.10;;;10.70;64.60;;;;;;5075793;28;20032;-71
2023/03/17 07:47:10;;;;;;;2.05;1.95;;;10.70;64.60;;;;;;5075752;28;20028;-71
2023/03/17 07:49:37;;;;;;;1.98;1.88;;;10.80;64.60;;;;;;5075098;28;20024;-72
2023/03/17 07:52:03;;;;;;;1.90;1.80;;;10.80;64.60;;;;;;5076163;28;20089;-72
2023/03/17 07:54:28;;;;;;;1.80;1.50;;;10.80;64.50;;;;;;5076020;28;20024;-70
2023/03/17 07:56:55;;;;;;;2.13;2.00;;;10.80;64.50;;;;;;5075510;28;20538;-71
2023/03/17 07:59:21;;;;;;;2.15;1.95;;;10.80;64.50;;;;;;5075366;28;20077;-73
2023/03/17 08:01:47;;;;;;;2.35;1.65;;;10.80;64.40;;;;;;5093377;28;20091;-71
2023/03/17 08:04:13;;;;;;;1.90;1.80;;;10.80;64.40;;;;;;5075168;28;20044;-71
2023/03/17 08:06:45;;;;;;;2.20;2.00;;;10.90;64.40;;;;;;5093679;28;20020;-71
2023/03/17 08:09:11;;;;;;;2.17;1.98;;;10.80;64.30;;;;;;5093290;28;20024;-71
2023/03/17 08:11:38;;;;;;;1.88;1.77;;;10.90;64.30;;;;;;5075254;28;20374;-72
2023/03/17 08:14:05;;;;;;;1.92;1.83;;;10.90;64.30;;;;;;5074882;28;20074;-72
2023/03/17 08:16:30;;;;;;;2.22;2.03;;;10.90;64.30;;;;;;5093641;28;20477;-74
2023/03/17 08:18:57;;;;;;;1.80;1.70;;;10.90;64.30;;;;;;5092885;28;20046;-73
2023/03/17 08:21:25;;;;;;;2.08;1.85;;;10.90;64.20;;;;;;5093378;28;20020;-71
2023/03/17 08:23:52;;;;;;;2.17;1.98;;;10.90;64.20;;;;;;5075127;28;20402;-72
2023/03/17 08:26:17;;;;;;;1.90;1.80;;;10.90;64.20;;;;;;5074844;28;20028;-71
2023/03/17 08:28:43;;;;;;;2.00;1.90;;;10.90;64.20;;;;;;5092974;28;20473;-71
2023/03/17 08:31:18;;;;;;;1.90;1.80;;;10.90;64.20;;;;;;5092661;28;20046;-70
2023/03/17 08:33:51;;;;;;;;;;;10.90;64.20;;;;;;5075494;28;20486;-73
2023/03/17 08:36:18;;;;;;;1.80;1.70;;;10.90;64.10;;;;;;5075094;28;19908;-72
2023/03/17 08:38:45;;;;;;;2.05;1.95;;;10.90;64.00;;;;;;5092586;28;20023;-71
2023/03/17 08:41:13;;;;;;;1.98;1.80;;;10.90;64.00;;;;;;5078891;28;20021;-72
2023/03/17 08:43:40;;;;;;;2.42;1.90;;;10.90;64.10;;;;;;5072741;28;20120;-72
2023/03/17 08:46:25;;;;;;;2.10;1.90;;;11.00;64.10;;;;;;5054708;28;20025;-71
2023/03/17 08:48:53;;;;;;;2.08;1.88;;;10.90;64.00;;;;;;5072916;28;20020;-72
2023/03/17 08:51:20;;;;;;;2.35;2.15;;;11.00;64.10;;;;;;5072512;28;20418;-72
2023/03/17 08:53:46;;;;;;;2.22;1.98;;;11.00;64.10;;;;;;5072588;28;20033;-72
2023/03/17 08:56:12;;;;;;;2.25;1.98;;;11.00;64.00;;;;;;5072392;28;20100;-71
2023/03/17 08:58:39;;;;;;;2.42;2.22;;;11.00;64.10;;;;;;5072732;28;20033;-72
2023/03/17 09:01:05;;;;;;;2.13;1.90;;;11.00;64.00;;;;;;5053809;28;20043;-72
2023/03/17 09:03:32;;;;;;;2.28;2.08;;;11.00;64.00;;;;;;5072385;28;20039;-71
2023/03/17 09:05:58;;;;;;;2.10;1.90;;;11.00;63.90;;;;;;5054391;28;20056;-72
2023/03/17 09:08:26;;;;;;;2.25;2.05;;;11.00;63.90;;;;;;5072430;28;20033;-71
2023/03/17 09:10:53;;;;;;;2.28;2.08;;;11.10;63.90;;;;;;5054033;28;20031;-71
2023/03/17 09:13:19;;;;;;;2.20;2.10;;;11.10;63.90;;;;;;5054668;28;20028;-71
2023/03/17 09:15:45;;;;;;;2.80;2.20;;;11.10;63.90;;;;;;5054211;28;20028;-72
2023/03/17 09:18:11;;;;;;;2.08;1.83;;;11.10;63.90;;;;;;5072964;28;20035;-71
2023/03/17 09:20:37;;;;;;;2.10;2.00;;;11.20;63.90;;;;;;5053834;28;20115;-72
2023/03/17 09:23:08;;;;;;;2.03;1.92;;;11.10;63.80;;;;;;5054325;28;20029;-71
2023/03/17 09:25:38;;;;;;;2.00;1.90;;;11.20;63.80;;;;;;5072294;28;20568;-72
2023/03/17 09:28:06;;;;;;;2.17;1.98;;;11.20;63.80;;;;;;5054064;28;20059;-72
2023/03/17 09:30:32;;;;;;;2.05;1.95;;;11.20;63.70;;;;;;5072141;28;20386;-72
2023/03/17 09:32:59;;;;;;;2.40;2.13;;;11.20;63.70;;;;;;5075591;28;20107;-71
2023/03/17 09:35:26;;;;;;;2.13;1.92;;;11.20;63.60;;;;;;5058127;28;20142;-73
2023/03/17 09:37:52;;;;;;;2.22;2.05;;;11.30;63.70;;;;;;5075786;28;20029;-70
2023/03/17 09:40:21;;;;;;;1.92;1.83;;;11.30;63.70;;;;;;5075346;28;20029;-72
2023/03/17 09:42:50;;;;;;;1.80;1.70;;;11.30;63.60;;;;;;5058107;28;20064;-71
2023/03/17 09:45:36;;;;;;;2.10;1.90;;;11.30;63.60;;;;;;5075934;28;20021;-72
2023/03/17 09:48:24;;;;;;;2.50;2.30;;;11.30;63.60;;;;;;5075848;28;20043;-72
2023/03/17 09:50:59;;;;;;;1.83;1.73;;;11.30;63.40;;;;;;5075650;28;20032;-74
2023/03/17 09:53:33;;;;;;;;;;;11.40;63.50;;;;;;5059037;28;20532;-71
2023/03/17 09:56:05;;;;;;;1.80;1.70;;;11.40;63.30;;;;;;5057763;28;19904;-71
2023/03/17 09:58:33;;;;;;;2.72;2.10;;;11.40;63.40;;;;;;5076896;28;20359;-72
2023/03/17 10:01:01;;;;;;;1.90;1.80;;;11.50;63.30;;;;;;5075354;28;20039;-73
2023/03/17 10:03:27;;;;;;;1.88;1.77;;;11.50;63.30;;;;;;5075576;28;20028;-71
2023/03/17 10:06:10;;;;;;;2.45;2.00;;;11.50;63.20;;;;;;5075557;28;20050;-72
2023/03/17 10:08:43;;;;;;;1.67;1.58;;;11.50;63.20;;;;;;5057845;28;20032;-71
2023/03/17 10:11:28;;;;;;;2.10;1.90;;;11.60;63.10;;;;;;5075227;28;20103;-73
2023/03/17 10:13:53;;;;;;;2.15;1.95;;;11.60;63.10;;;;;;5057651;28;20073;-72
2023/03/17 10:16:29;;;;;;;2.10;1.90;;;11.60;63.10;;;;;;5075369;28;20024;-72
2023/03/17 10:19:01;;;;;;;2.10;1.90;;;11.60;63.00;;;;;;5075287;28;20486;-72
2023/03/17 10:21:40;;;;;;;2.00;1.90;;;11.70;63.00;;;;;;5057262;28;20033;-72
2023/03/17 10:24:09;;;;;;;1.75;1.65;;;11.70;63.00;;;;;;5057236;28;20106;-71
2023/03/17 10:26:52;;;;;;;2.10;1.90;;;11.70;63.00;;;;;;5057676;28;20028;-72
2023/03/17 10:29:22;;;;;;;2.60;2.13;;;11.70;62.90;;;;;;5074855;28;20557;-72
2023/03/17 10:31:50;;;;;;;1.88;1.77;;;11.70;62.90;;;;;;5056807;28;20052;-73
2023/03/17 10:34:17;;;;;;;1.92;1.83;;;11.70;62.90;;;;;;5056626;28;20049;-71
2023/03/17 10:36:52;;;;;;;3.10;2.28;;;11.70;62.80;;;;;;5057346;28;20459;-72
2023/03/17 10:39:18;;;;;;;;;;;11.80;62.90;;;;;;5075422;28;20032;-72
2023/03/17 10:41:55;;;;;;;1.80;1.70;;;11.70;62.60;;;;;;5056332;28;19915;-73
2023/03/17 10:45:03;;;;;;;1.60;1.50;;;11.80;62.80;;;;;;5073581;28;20039;-72
2023/03/17 10:47:37;;;;;;;1.73;1.63;;;11.80;62.70;;;;;;5014766;28;20056;-72
2023/03/17 10:50:24;;;;;;;2.10;1.90;;;11.80;62.70;;;;;;5074762;28;20025;-70
2023/03/17 10:53:04;;;;;;;1.70;1.60;;;11.80;62.60;;;;;;5074233;28;20028;-72
2023/03/17 10:55:36;;;;;;;1.77;1.67;;;11.80;62.70;;;;;;5056986;28;20028;-72
2023/03/17 10:58:12;;;;;;;2.00;1.90;;;11.80;62.70;;;;;;5074508;28;20028;-70
2023/03/17 11:00:46;;;;;;;2.20;2.00;;;11.80;62.70;;;;;;5056666;28;20024;-71
2023/03/17 11:03:22;;;;;;;1.80;1.70;;;11.80;62.70;;;;;;5073997;28;20040;-73
2023/03/17 11:06:15;;;;;;;1.85;1.75;;;11.80;62.70;;;;;;5074444;28;20024;-72
2023/03/17 11:08:53;;;;;;;1.77;1.67;;;11.80;62.50;;;;;;5053398;28;20397;-73
2023/03/17 11:11:28;;;;;;;2.08;1.92;;;11.80;62.60;;;;;;5075606;28;20028;-73
2023/03/17 11:14:12;;;;;;;1.77;1.67;;;11.80;62.60;;;;;;5073801;28;20028;-71
2023/03/17 11:16:45;;;;;;;1.83;1.73;;;11.80;62.60;;;;;;5074376;28;20021;-72
2023/03/17 11:19:15;;;;;;;1.85;1.70;;;11.80;62.60;;;;;;5074317;28;20025;-71
2023/03/17 11:21:50;;;;;;;1.95;1.80;;;11.90;62.60;;;;;;5074167;28;20028;-73
2023/03/17 11:24:28;;;;;;;1.83;1.73;;;11.90;62.60;;;;;;5056240;28;20031;-72
2023/03/17 11:26:57;;;;;;;2.00;1.90;;;11.90;62.50;;;;;;5056421;28;20024;-72
2023/03/17 11:29:45;;;;;;;2.10;1.85;;;11.90;62.50;;;;;;5055867;28;20024;-71
2023/03/17 11:32:24;;;;;;;1.80;1.70;;;11.90;62.60;;;;;;5074057;28;20058;-72
2023/03/17 11:34:56;;;;;;;2.72;1.90;;;11.90;62.50;;;;;;5087129;28;20084;-72
2023/03/17 11:37:42;;;;;;;1.90;1.80;;;11.90;62.50;;;;;;5076237;28;20458;-72
2023/03/17 11:40:43;;;;;;;1.70;1.60;;;11.90;62.50;;;;;;5075802;28;20044;-71
2023/03/17 11:43:28;;;;;;;1.92;1.77;;;11.90;62.30;;;;;;5076052;28;20131;-71
2023/03/17 11:45:58;;;;;;;2.15;2.03;;;12.00;62.40;;;;;;5075684;28;20057;-72
2023/03/17 11:48:33;;;;;;;1.92;1.83;;;12.00;62.40;;;;;;5094183;28;20332;-71
2023/03/17 11:51:26;;;;;;;2.00;1.90;;;12.00;62.40;;;;;;5093986;28;20024;-72
2023/03/17 11:54:30;;;;;;;1.80;1.70;;;12.00;62.40;;;;;;5093451;28;20027;-72
2023/03/17 11:57:03;;;;;;;2.25;1.98;;;12.00;62.20;;;;;;5075386;28;20028;-71
2023/03/17 11:59:29;;;;;;;2.20;2.00;;;12.00;62.30;;;;;;5075375;28;20051;-73
2023/03/17 12:01:58;;;;;;;2.03;1.83;;;12.00;62.30;;;;;;5093709;28;20458;-71
2023/03/17 12:04:33;;;;;;;1.70;1.60;;;12.00;62.30;;;;;;5075653;28;20043;-71
2023/03/17 12:07:21;;;;;;;1.83;1.73;;;12.00;62.30;;;;;;5074889;28;20206;-72
2023/03/17 12:10:16;;;;;;;2.08;1.85;;;12.00;62.20;;;;;;5093806;28;20142;-73
2023/03/17 12:12:52;;;;;;;1.90;1.80;;;12.00;62.30;;;;;;5029053;28;20055;-71
2023/03/17 12:15:33;;;;;;;1.80;1.70;;;12.00;62.20;;;;;;5093244;28;20028;-71
2023/03/17 12:18:04;;;;;;;2.03;1.83;;;12.00;62.20;;;;;;5093134;28;20370;-71
2023/03/17 12:20:32;;;;;;;2.08;1.83;;;12.00;62.20;;;;;;5075014;28;20031;-72
2023/03/17 12:23:03;;;;;;;2.00;1.90;;;11.90;62.20;;;;;;5075270;28;20032;-70
2023/03/17 12:26:05;;;;;;;2.00;1.90;;;11.90;62.20;;;;;;5075248;28;20460;-72
2023/03/17 12:28:56;;;;;;;1.92;1.83;;;11.90;62.30;;;;;;5054682;28;20058;-73
2023/03/17 12:31:40;;;;;;;2.08;1.70;;;11.80;62.20;;;;;;5093369;28;20112;-71
2023/03/17 12:34:22;;;;;;;1.88;1.77;;;11.80;62.20;;;;;;5074558;28;20055;-72
2023/03/17 12:36:48;;;;;;;1.95;1.80;;;11.80;62.30;;;;;;5074612;28;20496;-72
2023/03/17 12:39:17;;;;;;;1.80;1.70;;;11.80;62.40;;;;;;5092882;28;20146;-71
2023/03/17 12:41:58;;;;;;;1.83;1.55;;;11.70;62.30;;;;;;5074177;28;20100;-72
2023/03/17 12:44:43;;;;;;;1.80;1.70;;;11.70;62.40;;;;;;5074843;28;20028;-72
2023/03/17 12:47:36;;;;;;;2.13;1.92;;;11.70;62.40;;;;;;5092532;28;20110;-72
2023/03/17 12:50:46;;;;;;;2.10;1.90;;;11.60;62.40;;;;;;5074491;28;20542;-72
2023/03/17 12:53:38;;;;;;;1.98;1.80;;;11.60;62.40;;;;;;4993961;28;20030;-71
2023/03/17 12:56:26;;;;;;;1.88;1.77;;;11.60;62.50;;;;;;5087700;28;20044;-71
2023/03/17 12:58:57;;;;;;;2.00;1.90;;;11.50;62.50;;;;;;5092348;28;20370;-73
2023/03/17 13:01:43;;;;;;;1.92;1.83;;;11.50;62.50;;;;;;5074361;28;20040;-71